createdAt,value
2023-05-04T00:01:05.332Z,86.95
2023-05-04T00:03:32.284Z,87.00
2023-05-04T00:05:59.389Z,87.32
2023-05-04T00:08:26.346Z,86.97
2023-05-04T00:10:54.567Z,87.17
2023-05-04T00:13:21.867Z,87.40
2023-05-04T00:15:48.973Z,87.20
2023-05-04T00:18:15.789Z,87.38
2023-05-04T00:20:42.550Z,87.29
2023-05-04T00:23:09.584Z,87.12
2023-05-04T00:25:36.499Z,87.26
2023-05-04T00:28:03.238Z,87.15
2023-05-04T00:30:30.165Z,86.88
2023-05-04T00:32:57.072Z,86.88
2023-05-04T00:35:25.496Z,87.12
2023-05-04T00:37:52.362Z,87.22
2023-05-04T00:40:19.908Z,87.18
2023-05-04T00:42:46.753Z,87.21
2023-05-04T00:45:15.868Z,87.44
2023-05-04T00:47:43.522Z,87.63
2023-05-04T00:50:11.928Z,87.89
2023-05-04T00:52:40.140Z,87.81
2023-05-04T00:55:07.300Z,87.72
2023-05-04T00:57:34.334Z,87.44
2023-05-04T01:00:01.314Z,87.29
2023-05-04T01:02:28.234Z,87.40
2023-05-04T01:04:55.855Z,87.58
2023-05-04T01:07:44.570Z,87.54
2023-05-04T01:10:17.994Z,87.40
2023-05-04T01:12:58.514Z,87.43
2023-05-04T01:15:27.579Z,87.53
2023-05-04T01:17:54.562Z,87.56
2023-05-04T01:20:21.697Z,87.74
2023-05-04T01:22:48.598Z,87.60
2023-05-04T01:25:16.506Z,87.95
2023-05-04T01:27:43.284Z,88.06
2023-05-04T01:30:21.002Z,88.38
2023-05-04T01:32:48.698Z,88.25
2023-05-04T01:35:16.663Z,88.16
2023-05-04T01:37:44.289Z,88.01
2023-05-04T01:40:12.413Z,88.02
2023-05-04T01:42:39.401Z,88.18
2023-05-04T01:45:10.755Z,88.20
2023-05-04T01:47:37.850Z,88.18
2023-05-04T01:50:06.221Z,88.19
2023-05-04T01:52:33.718Z,88.09
2023-05-04T01:55:01.111Z,87.87
2023-05-04T01:57:28.435Z,88.17
2023-05-04T01:59:55.739Z,88.17
2023-05-04T02:02:22.828Z,88.31
2023-05-04T02:04:49.779Z,88.27
2023-05-04T02:07:16.726Z,88.24
2023-05-04T02:09:43.777Z,88.58
2023-05-04T02:12:10.611Z,88.37
2023-05-04T02:14:37.450Z,88.20
2023-05-04T02:17:04.385Z,87.42
2023-05-04T02:19:31.751Z,87.89
2023-05-04T02:21:58.578Z,87.92
2023-05-04T02:24:25.515Z,87.47
2023-05-04T02:26:52.655Z,87.50
2023-05-04T02:29:19.616Z,87.49
2023-05-04T02:31:46.697Z,87.32
2023-05-04T02:34:13.620Z,87.38
2023-05-04T02:36:40.657Z,87.26
2023-05-04T02:39:08.105Z,87.22
2023-05-04T02:41:34.890Z,87.35
2023-05-04T02:44:01.652Z,87.52
2023-05-04T02:46:28.563Z,87.55
2023-05-04T02:48:55.348Z,87.50
2023-05-04T02:51:22.308Z,87.87
2023-05-04T02:53:49.260Z,87.63
2023-05-04T02:56:16.393Z,88.01
2023-05-04T02:58:43.259Z,87.77
2023-05-04T03:01:10.333Z,87.88
2023-05-04T03:03:37.329Z,87.92
2023-05-04T03:06:04.684Z,87.32
2023-05-04T03:08:31.623Z,87.55
2023-05-04T03:10:58.471Z,87.26
2023-05-04T03:13:25.624Z,87.41
2023-05-04T03:15:52.562Z,87.79
2023-05-04T03:18:19.817Z,87.58
2023-05-04T03:20:46.751Z,87.54
2023-05-04T03:23:13.838Z,87.89
2023-05-04T03:25:41.065Z,87.78
2023-05-04T03:28:08.225Z,87.83
2023-05-04T03:30:36.573Z,88.35
2023-05-04T03:33:03.530Z,88.56
2023-05-04T03:35:30.554Z,88.19
2023-05-04T03:37:57.512Z,87.92
2023-05-04T03:40:25.087Z,87.59
2023-05-04T03:42:52.849Z,88.35
2023-05-04T03:45:20.113Z,88.46
2023-05-04T03:47:47.354Z,88.69
2023-05-04T03:50:14.677Z,88.52
2023-05-04T03:52:42.094Z,88.48
2023-05-04T03:55:10.545Z,88.32
2023-05-04T03:57:37.456Z,88.82
2023-05-04T04:00:06.327Z,89.08
2023-05-04T04:02:33.732Z,89.24
2023-05-04T04:05:01.406Z,89.28
2023-05-04T04:07:28.185Z,89.07
2023-05-04T04:09:55.253Z,88.34
2023-05-04T04:12:22.208Z,88.58
2023-05-04T04:14:50.171Z,88.90
2023-05-04T04:17:17.315Z,88.57
2023-05-04T04:19:44.739Z,88.40
2023-05-04T04:22:11.550Z,88.46
2023-05-04T04:24:38.395Z,88.25
2023-05-04T04:27:05.201Z,88.17
2023-05-04T04:29:34.488Z,87.41
2023-05-04T04:32:03.157Z,87.11
2023-05-04T04:34:30.083Z,86.56
2023-05-04T04:36:58.281Z,87.53
2023-05-04T04:39:25.656Z,86.87
2023-05-04T04:41:52.994Z,86.02
2023-05-04T04:44:21.267Z,85.59
2023-05-04T04:46:48.799Z,84.78
2023-05-04T04:49:18.113Z,84.67
2023-05-04T04:51:45.397Z,84.64
2023-05-04T04:54:12.600Z,83.57
2023-05-04T04:56:40.912Z,81.09
2023-05-04T04:59:07.915Z,81.71
2023-05-04T05:01:35.201Z,83.08
2023-05-04T05:04:02.406Z,81.43
2023-05-04T05:06:29.245Z,80.27
2023-05-04T05:08:56.802Z,79.25
2023-05-04T05:11:23.885Z,78.17
2023-05-04T05:13:50.818Z,77.29
2023-05-04T05:16:17.762Z,76.62
2023-05-04T05:18:44.881Z,76.23
2023-05-04T05:21:11.984Z,76.37
2023-05-04T05:23:39.005Z,75.37
2023-05-04T05:26:06.390Z,75.07
2023-05-04T05:28:33.791Z,74.68
2023-05-04T05:31:00.877Z,75.51
2023-05-04T05:33:27.969Z,74.36
2023-05-04T05:35:55.169Z,72.74
2023-05-04T05:38:22.324Z,71.46
2023-05-04T05:40:49.714Z,70.27
2023-05-04T05:43:16.943Z,71.37
2023-05-04T05:45:44.249Z,69.04
2023-05-04T05:48:11.496Z,69.36
2023-05-04T05:50:38.409Z,67.59
2023-05-04T05:53:05.659Z,68.88
2023-05-04T05:55:32.880Z,68.78
2023-05-04T05:58:00.131Z,67.85
2023-05-04T06:00:27.979Z,66.10
2023-05-04T06:02:56.207Z,66.36
2023-05-04T06:05:24.224Z,66.53
2023-05-04T06:07:51.113Z,66.49
2023-05-04T06:10:18.638Z,66.43
2023-05-04T06:12:45.936Z,66.53
2023-05-04T06:15:14.772Z,67.62
2023-05-04T06:17:42.265Z,66.94
2023-05-04T06:20:10.305Z,65.38
2023-05-04T06:22:37.674Z,65.83
2023-05-04T06:25:07.696Z,66.31
2023-05-04T06:27:35.153Z,66.03
2023-05-04T06:30:02.264Z,64.58
2023-05-04T06:32:29.432Z,64.33
2023-05-04T06:34:56.914Z,65.52
2023-05-04T06:37:23.846Z,65.50
2023-05-04T06:39:51.285Z,64.77
2023-05-04T06:42:18.249Z,65.26
2023-05-04T06:44:45.733Z,65.26
2023-05-04T06:47:13.019Z,65.21
2023-05-04T06:49:40.057Z,63.77
2023-05-04T06:52:07.087Z,63.63
2023-05-04T06:54:34.081Z,63.46
2023-05-04T06:57:03.760Z,62.60
2023-05-04T06:59:31.153Z,62.98
2023-05-04T07:01:58.395Z,61.20
2023-05-04T07:04:25.408Z,61.95
2023-05-04T07:06:53.304Z,62.10
2023-05-04T07:09:21.207Z,61.62
2023-05-04T07:11:49.135Z,60.12
2023-05-04T07:14:17.255Z,56.93
2023-05-04T07:16:44.678Z,58.12
2023-05-04T07:19:12.133Z,56.73
2023-05-04T07:21:39.085Z,53.77
2023-05-04T07:24:07.343Z,51.96
2023-05-04T07:26:34.298Z,51.98
2023-05-04T07:29:01.334Z,51.27
2023-05-04T07:31:30.404Z,49.58
2023-05-04T07:33:58.480Z,47.22
2023-05-04T07:36:27.223Z,46.35
2023-05-04T07:38:55.173Z,46.52
2023-05-04T07:41:22.591Z,44.84
2023-05-04T07:43:49.537Z,45.09
2023-05-04T07:46:17.635Z,44.88
2023-05-04T07:48:44.746Z,45.21
2023-05-04T07:51:15.553Z,45.41
2023-05-04T07:53:43.947Z,44.35
2023-05-04T07:56:13.099Z,44.25
2023-05-04T07:58:41.827Z,43.00
2023-05-04T08:01:09.259Z,41.96
2023-05-04T08:03:36.997Z,40.85
2023-05-04T08:06:04.355Z,40.60
2023-05-04T08:08:32.036Z,40.57
2023-05-04T08:11:12.012Z,40.77
2023-05-04T08:13:47.321Z,40.73
2023-05-04T08:16:14.387Z,39.87
2023-05-04T08:18:41.887Z,39.47
2023-05-04T08:21:08.792Z,39.92
2023-05-04T08:23:37.154Z,40.09
2023-05-04T08:26:05.180Z,39.34
2023-05-04T08:28:38.321Z,39.47
2023-05-04T08:31:05.261Z,38.08
2023-05-04T08:33:32.673Z,38.58
2023-05-04T08:36:00.204Z,38.32
2023-05-04T08:38:27.190Z,38.04
2023-05-04T08:40:55.003Z,37.64
2023-05-04T08:43:22.621Z,38.25
2023-05-04T08:45:50.869Z,36.87
2023-05-04T08:48:18.073Z,36.58
2023-05-04T08:50:46.395Z,37.23
2023-05-04T08:53:15.189Z,37.15
2023-05-04T08:55:44.440Z,36.19
2023-05-04T08:58:13.503Z,34.96
2023-05-04T09:00:48.593Z,35.29
2023-05-04T09:03:18.070Z,34.63
2023-05-04T09:05:46.601Z,35.51
2023-05-04T09:08:15.164Z,35.34
2023-05-04T09:10:42.798Z,35.92
2023-05-04T09:13:09.858Z,36.11
2023-05-04T09:15:37.274Z,35.54
2023-05-04T09:18:06.415Z,34.32
2023-05-04T09:20:47.618Z,35.63
2023-05-04T09:23:16.527Z,34.42
2023-05-04T09:25:54.965Z,35.13
2023-05-04T09:28:34.910Z,34.79
2023-05-04T09:31:02.925Z,34.62
2023-05-04T09:33:30.384Z,33.86
2023-05-04T09:35:59.804Z,34.01
2023-05-04T09:38:28.079Z,33.20
2023-05-04T09:40:55.440Z,33.43
2023-05-04T09:43:24.547Z,32.70
2023-05-04T09:45:52.042Z,32.38
2023-05-04T09:48:20.845Z,31.20
2023-05-04T09:51:01.338Z,31.24
2023-05-04T09:53:30.321Z,31.85
2023-05-04T09:56:29.939Z,33.80
2023-05-04T09:59:00.251Z,32.45
2023-05-04T10:01:30.596Z,32.25
2023-05-04T10:03:58.503Z,30.90
2023-05-04T10:06:28.969Z,30.51
2023-05-04T10:08:56.984Z,30.90
2023-05-04T10:11:29.057Z,30.52
2023-05-04T10:14:00.281Z,30.71
2023-05-04T10:16:41.706Z,30.67
2023-05-04T10:19:16.164Z,29.89
2023-05-04T10:22:04.623Z,31.18
2023-05-04T10:25:05.821Z,28.81
2023-05-04T10:27:46.700Z,28.75
2023-05-04T10:30:17.643Z,29.25
2023-05-04T10:32:45.536Z,30.46
2023-05-04T10:35:12.861Z,30.29
2023-05-04T10:37:50.847Z,31.18
2023-05-04T10:40:18.561Z,30.18
2023-05-04T10:42:45.672Z,28.65
2023-05-04T10:45:13.579Z,29.46
2023-05-04T10:47:42.262Z,30.13
2023-05-04T10:50:14.920Z,29.98
2023-05-04T10:52:49.730Z,30.29
2023-05-04T10:55:18.369Z,30.36
2023-05-04T10:57:50.085Z,30.58
2023-05-04T11:00:18.598Z,31.41
2023-05-04T11:02:49.891Z,31.61
2023-05-04T11:05:20.722Z,30.20
2023-05-04T11:07:53.578Z,29.93
2023-05-04T11:10:25.514Z,29.66
2023-05-04T11:12:55.801Z,30.34
2023-05-04T11:15:23.332Z,29.66
2023-05-04T11:17:52.816Z,30.14
2023-05-04T11:20:25.623Z,28.61
2023-05-04T11:22:54.397Z,29.25
2023-05-04T11:25:32.725Z,28.62
2023-05-04T11:28:01.198Z,29.47
2023-05-04T11:30:33.855Z,29.34
2023-05-04T11:33:12.214Z,29.11
2023-05-04T11:35:39.977Z,29.41
2023-05-04T11:38:08.212Z,29.67
2023-05-04T11:40:36.705Z,29.76
2023-05-04T11:43:04.557Z,30.63
2023-05-04T11:45:34.136Z,31.19
2023-05-04T11:48:03.444Z,30.44
2023-05-04T11:50:30.605Z,30.25
2023-05-04T11:53:09.616Z,30.43
2023-05-04T11:55:38.550Z,30.29
2023-05-04T11:58:08.155Z,29.55
2023-05-04T12:00:42.652Z,30.09
2023-05-04T12:03:14.993Z,30.29
2023-05-04T12:05:52.825Z,29.54
2023-05-04T12:08:30.245Z,29.84
2023-05-04T12:11:17.498Z,29.86
2023-05-04T12:13:45.613Z,29.72
2023-05-04T12:16:18.413Z,30.15
2023-05-04T12:18:47.088Z,29.68
2023-05-04T12:21:17.819Z,28.90
2023-05-04T12:23:46.555Z,28.99
2023-05-04T12:26:15.712Z,28.31
2023-05-04T12:28:45.590Z,28.36
2023-05-04T12:31:13.162Z,29.08
2023-05-04T12:33:40.481Z,29.80
2023-05-04T12:36:08.563Z,29.55
2023-05-04T12:38:35.580Z,28.85
2023-05-04T12:41:04.715Z,28.62
2023-05-04T12:43:32.534Z,27.69
2023-05-04T12:46:00.906Z,28.36
2023-05-04T12:48:29.944Z,28.25
2023-05-04T12:50:58.434Z,28.69
2023-05-04T12:53:32.243Z,27.74
2023-05-04T12:56:00.869Z,28.07
2023-05-04T12:58:28.748Z,27.71
2023-05-04T13:00:57.248Z,27.16
2023-05-04T13:03:24.386Z,27.29
2023-05-04T13:05:51.499Z,25.91
2023-05-04T13:08:20.037Z,26.25
2023-05-04T13:10:47.561Z,26.32
2023-05-04T13:13:18.241Z,25.68
2023-05-04T13:15:45.766Z,24.51
2023-05-04T13:18:13.317Z,24.44
2023-05-04T13:20:41.181Z,24.81
2023-05-04T13:23:08.238Z,25.23
2023-05-04T13:25:35.341Z,25.09
2023-05-04T13:28:02.520Z,26.47
2023-05-04T13:30:30.541Z,26.75
2023-05-04T13:32:57.778Z,26.52
2023-05-04T13:35:25.514Z,26.97
2023-05-04T13:37:52.861Z,26.54
2023-05-04T13:40:20.064Z,26.52
2023-05-04T13:42:47.180Z,25.88
2023-05-04T13:45:15.113Z,25.90
2023-05-04T13:47:42.181Z,25.84
2023-05-04T13:50:09.987Z,26.62
2023-05-04T13:52:37.506Z,26.47
2023-05-04T13:55:05.384Z,26.23
2023-05-04T13:57:32.481Z,27.01
2023-05-04T14:00:06.366Z,27.96
2023-05-04T14:02:34.294Z,28.40
2023-05-04T14:05:01.800Z,29.20
2023-05-04T14:07:28.749Z,29.74
2023-05-04T14:09:56.775Z,29.81
2023-05-04T14:12:24.542Z,29.59
2023-05-04T14:14:52.052Z,30.09
2023-05-04T14:17:19.266Z,30.29
2023-05-04T14:19:46.344Z,31.22
2023-05-04T14:22:13.414Z,31.66
2023-05-04T14:24:40.736Z,31.52
2023-05-04T14:27:07.738Z,31.30
2023-05-04T14:29:35.432Z,31.93
2023-05-04T14:32:10.544Z,32.12
2023-05-04T14:34:37.810Z,32.74
2023-05-04T14:37:04.862Z,33.09
2023-05-04T14:39:31.862Z,33.60
2023-05-04T14:41:59.222Z,33.76
2023-05-04T14:44:29.547Z,33.97
2023-05-04T14:46:56.936Z,33.24
2023-05-04T14:49:35.872Z,33.37
2023-05-04T14:52:05.055Z,33.85
2023-05-04T14:54:32.203Z,34.23
2023-05-04T14:57:02.947Z,35.00
2023-05-04T14:59:29.865Z,36.73
2023-05-04T15:01:58.403Z,36.83
2023-05-04T15:04:25.367Z,37.70
2023-05-04T15:06:52.959Z,38.36
2023-05-04T15:09:19.896Z,38.41
2023-05-04T15:11:47.393Z,39.06
2023-05-04T15:14:15.641Z,39.16
2023-05-04T15:16:42.683Z,38.98
2023-05-04T15:19:09.832Z,39.08
2023-05-04T15:21:36.767Z,39.50
2023-05-04T15:24:04.013Z,39.44
2023-05-04T15:26:31.758Z,39.49
2023-05-04T15:28:58.759Z,40.06
2023-05-04T15:31:25.997Z,40.35
2023-05-04T15:33:54.024Z,40.34
2023-05-04T15:36:21.821Z,40.67
2023-05-04T15:38:48.980Z,40.80
2023-05-04T15:41:16.227Z,40.24
2023-05-04T15:43:43.380Z,40.16
2023-05-04T15:46:10.623Z,40.45
2023-05-04T15:48:37.869Z,40.53
2023-05-04T15:51:11.439Z,41.14
2023-05-04T15:53:39.201Z,41.09
2023-05-04T15:56:06.501Z,41.68
2023-05-04T15:58:34.109Z,41.79
2023-05-04T16:01:04.410Z,42.03
2023-05-04T16:03:32.498Z,42.30
2023-05-04T16:05:59.413Z,42.67
2023-05-04T16:08:26.622Z,42.77
2023-05-04T16:10:54.217Z,42.76
2023-05-04T16:13:21.448Z,42.63
2023-05-04T16:15:52.452Z,43.07
2023-05-04T16:18:19.969Z,43.32
2023-05-04T16:20:48.210Z,42.81
2023-05-04T16:23:17.385Z,43.06
2023-05-04T16:25:44.793Z,43.14
2023-05-04T16:28:12.557Z,43.66
2023-05-04T16:30:39.946Z,43.60
2023-05-04T16:33:10.109Z,43.46
2023-05-04T16:35:38.601Z,43.84
2023-05-04T16:38:05.826Z,44.19
2023-05-04T16:40:33.233Z,44.56
2023-05-04T16:43:00.796Z,44.56
2023-05-04T16:45:31.776Z,44.52
2023-05-04T16:47:59.437Z,44.32
2023-05-04T16:50:26.743Z,44.72
2023-05-04T16:52:54.142Z,45.14
2023-05-04T16:55:21.575Z,45.30
2023-05-04T16:57:49.265Z,45.12
2023-05-04T17:00:17.489Z,45.13
2023-05-04T17:02:44.848Z,45.36
2023-05-04T17:05:12.516Z,45.68
2023-05-04T17:07:40.294Z,45.64
2023-05-04T17:10:09.264Z,45.88
2023-05-04T17:12:36.796Z,46.02
2023-05-04T17:15:04.810Z,46.39
2023-05-04T17:17:31.961Z,46.54
2023-05-04T17:19:59.273Z,46.60
2023-05-04T17:22:26.819Z,46.74
2023-05-04T17:24:53.886Z,46.69
2023-05-04T17:27:21.179Z,46.96
2023-05-04T17:29:48.278Z,47.50
2023-05-04T17:32:15.333Z,47.50
2023-05-04T17:34:42.701Z,47.43
2023-05-04T17:37:10.034Z,47.71
2023-05-04T17:39:37.341Z,48.02
2023-05-04T17:42:05.123Z,48.03
2023-05-04T17:44:33.119Z,48.25
2023-05-04T17:47:00.715Z,48.69
2023-05-04T17:49:27.915Z,48.53
2023-05-04T17:51:56.788Z,48.81
2023-05-04T17:54:23.865Z,48.84
2023-05-04T17:56:50.863Z,49.13
2023-05-04T17:59:18.373Z,49.51
2023-05-04T18:01:46.428Z,49.79
2023-05-04T18:04:13.576Z,49.82
2023-05-04T18:06:40.861Z,50.01
2023-05-04T18:09:08.136Z,50.17
2023-05-04T18:11:35.101Z,50.41
2023-05-04T18:14:02.440Z,50.29
2023-05-04T18:16:29.447Z,50.37
2023-05-04T18:18:58.420Z,50.71
2023-05-04T18:21:26.360Z,51.05
2023-05-04T18:23:53.608Z,51.14
2023-05-04T18:26:23.009Z,51.13
2023-05-04T18:28:50.349Z,51.53
2023-05-04T18:31:18.401Z,51.69
2023-05-04T18:33:45.775Z,51.78
2023-05-04T18:36:12.856Z,51.75
2023-05-04T18:38:40.213Z,51.59
2023-05-04T18:41:07.831Z,51.56
2023-05-04T18:43:35.305Z,51.53
2023-05-04T18:46:08.912Z,51.50
2023-05-04T18:48:36.005Z,51.77
2023-05-04T18:51:03.069Z,51.84
2023-05-04T18:53:30.360Z,51.95
2023-05-04T18:56:02.642Z,51.85
2023-05-04T18:58:30.170Z,52.00
2023-05-04T19:00:57.237Z,52.01
2023-05-04T19:03:24.793Z,52.19
2023-05-04T19:05:52.527Z,52.38
2023-05-04T19:08:19.476Z,52.73
2023-05-04T19:10:47.156Z,52.57
2023-05-04T19:13:16.275Z,52.67
2023-05-04T19:15:44.352Z,52.99
2023-05-04T19:18:12.160Z,52.86
2023-05-04T19:20:40.117Z,52.89
2023-05-04T19:23:07.260Z,53.18
2023-05-04T19:25:35.399Z,52.95
2023-05-04T19:28:09.215Z,53.65
2023-05-04T19:30:37.528Z,53.23
2023-05-04T19:33:06.045Z,53.08
2023-05-04T19:35:33.556Z,53.47
2023-05-04T19:38:02.407Z,53.73
2023-05-04T19:40:29.387Z,54.27
2023-05-04T19:42:56.242Z,54.36
2023-05-04T19:45:23.275Z,54.42
2023-05-04T19:47:50.913Z,54.57
2023-05-04T19:50:18.400Z,54.90
2023-05-04T19:52:45.689Z,54.93
2023-05-04T19:55:13.494Z,54.83
2023-05-04T19:57:40.560Z,54.32
2023-05-04T20:00:10.176Z,54.65
2023-05-04T20:02:38.449Z,54.63
2023-05-04T20:05:06.274Z,54.57
2023-05-04T20:07:33.604Z,55.11
2023-05-04T20:10:00.962Z,55.19
2023-05-04T20:12:28.322Z,54.98
2023-05-04T20:14:55.184Z,55.11
2023-05-04T20:17:22.443Z,55.17
2023-05-04T20:19:50.260Z,55.06
2023-05-04T20:22:17.772Z,55.08
2023-05-04T20:24:44.688Z,55.39
2023-05-04T20:27:12.248Z,55.46
2023-05-04T20:29:39.294Z,55.71
2023-05-04T20:32:07.962Z,55.67
2023-05-04T20:34:34.922Z,55.80
2023-05-04T20:37:02.790Z,55.79
2023-05-04T20:39:29.994Z,55.87
2023-05-04T20:41:57.077Z,55.84
2023-05-04T20:44:24.075Z,56.18
2023-05-04T20:46:50.971Z,55.96
2023-05-04T20:49:18.120Z,56.30
2023-05-04T20:51:45.198Z,56.22
2023-05-04T20:54:12.961Z,56.79
2023-05-04T20:56:39.996Z,57.02
2023-05-04T20:59:07.106Z,57.47
2023-05-04T21:01:34.197Z,57.43
2023-05-04T21:04:01.302Z,57.62
2023-05-04T21:06:28.398Z,57.73
2023-05-04T21:08:55.508Z,57.75
2023-05-04T21:11:22.436Z,57.53
2023-05-04T21:13:49.441Z,58.10
2023-05-04T21:16:16.447Z,58.05
2023-05-04T21:18:44.952Z,58.24
2023-05-04T21:21:12.315Z,57.89
2023-05-04T21:23:40.084Z,58.07
2023-05-04T21:26:07.080Z,58.10
2023-05-04T21:28:34.181Z,58.04
2023-05-04T21:31:01.490Z,58.46
2023-05-04T21:33:28.618Z,58.78
2023-05-04T21:35:56.327Z,58.59
2023-05-04T21:38:23.125Z,58.84
2023-05-04T21:40:50.161Z,58.75
2023-05-04T21:43:17.529Z,58.48
2023-05-04T21:45:44.726Z,58.94
2023-05-04T21:48:11.973Z,59.01
2023-05-04T21:50:39.201Z,58.80
2023-05-04T21:53:06.490Z,58.99
2023-05-04T21:55:33.358Z,58.97
2023-05-04T21:58:00.565Z,58.97
2023-05-04T22:00:28.320Z,59.54
2023-05-04T22:02:56.024Z,59.36
2023-05-04T22:05:23.450Z,59.36
2023-05-04T22:07:50.838Z,59.33
2023-05-04T22:10:18.651Z,59.53
2023-05-04T22:12:45.980Z,59.74
2023-05-04T22:15:14.327Z,59.62
2023-05-04T22:17:41.529Z,59.64
2023-05-04T22:20:09.523Z,59.84
2023-05-04T22:22:36.647Z,60.07
2023-05-04T22:25:03.760Z,59.94
2023-05-04T22:27:31.065Z,60.05
2023-05-04T22:29:58.090Z,59.99
2023-05-04T22:32:25.099Z,60.07
2023-05-04T22:34:52.127Z,60.32
2023-05-04T22:37:19.173Z,60.62
2023-05-04T22:39:46.158Z,60.82
2023-05-04T22:42:13.125Z,61.09
2023-05-04T22:44:40.121Z,61.03
2023-05-04T22:47:07.044Z,61.23
2023-05-04T22:49:34.092Z,61.37
2023-05-04T22:52:01.125Z,61.31
2023-05-04T22:54:28.194Z,61.56
2023-05-04T22:56:55.331Z,61.79
2023-05-04T22:59:22.325Z,61.99
2023-05-04T23:01:50.699Z,62.14
2023-05-04T23:04:18.257Z,62.20
2023-05-04T23:06:45.146Z,62.31
2023-05-04T23:09:13.421Z,62.36
2023-05-04T23:11:40.879Z,62.52
2023-05-04T23:14:08.410Z,62.61
2023-05-04T23:16:35.337Z,62.44
2023-05-04T23:19:02.492Z,62.49
2023-05-04T23:21:29.519Z,62.52
2023-05-04T23:23:56.508Z,62.46
2023-05-04T23:26:23.975Z,62.64
2023-05-04T23:28:51.473Z,62.95
2023-05-04T23:31:18.788Z,63.05
2023-05-04T23:33:45.930Z,63.07
2023-05-04T23:36:12.757Z,63.16
2023-05-04T23:38:39.610Z,63.35
2023-05-04T23:41:06.455Z,63.58
2023-05-04T23:43:33.900Z,63.41
2023-05-04T23:46:05.368Z,63.70
2023-05-04T23:48:32.706Z,63.49
2023-05-04T23:51:06.089Z,63.88
2023-05-04T23:53:34.285Z,63.97
2023-05-04T23:56:06.351Z,64.16
2023-05-04T23:58:34.597Z,64.06
